CheckWX is a tool to help pilots better visualize weather data.  It is not intended as a substitute for an official pre-flight weather briefing.

08:08:33 UTC

RPMR TAF
General Santos International Airport
General Santos, Philippines
TAF RPMR 190500Z 1906/2006 06008KT 9999 FEW018 BKN080 TEMPO 1906/1912 02010KT 9000 -SHRA SCT018 OVC080

Mar-19@
06:00 UTC

Mar-19 @ 06:00 UTC

Mar-20@
06:00 UTC

Mar-20 @ 06:00 UTC

TAF RPMR 190500Z 1906/2006 06008KT 9999 FEW018 BKN080
Wind
  • 060° at 8 KTS
Cloud Levels
  • Few at 1,800' AGL
  • Broken at 8,000' AGL

Mar-19@
06:00 UTC

Mar-19 @ 06:00 UTC

Mar-19@
12:00 UTC

Mar-19 @ 12:00 UTC

TEMPO 1906/1912 02010KT 9000 -SHRA SCT018 OVC080

Temporary

Temporary Changes expected for less than half the time period

Wind
  • 020° at 10 KTS
Conditions
Light Rain
Cloud Levels
  • Scattered at 1,800' AGL
  • Overcast at 8,000' AGL